Time;durP1;ratioP1;P1;durP2;ratioP2;P2;SDS_P1;SDS_P2;PMS_P1;PMS_P2;Temp;Humidity;BMP_temperature;BMP_pressure;BME280_temperature;BME280_humidity;BME280_pressure;Samples;Min_cycle;Max_cycle;Signal;HPM_P1;HPM_P2
2021/09/25 00:00:07;;;;;;;9.63;3.78;;;;;;;15.91;86.00;101127.00;10166841;28;20504;-71
2021/09/25 00:05:04;;;;;;;8.52;4.38;;;;;;;15.89;86.17;101131.25;10160320;28;20141;-69
2021/09/25 00:10:03;;;;;;;13.32;3.72;;;;;;;15.88;86.36;101135.97;10163003;28;20046;-70
2021/09/25 00:14:59;;;;;;;9.43;3.67;;;;;;;15.87;86.64;101122.50;10154299;28;20092;-70
2021/09/25 00:19:55;;;;;;;8.65;3.67;;;;;;;15.86;86.68;101134.69;10161701;28;20050;-70
2021/09/25 00:24:52;;;;;;;10.50;4.20;;;;;;;15.86;86.63;101137.47;10159489;28;20459;-71
2021/09/25 00:29:48;;;;;;;11.40;4.80;;;;;;;15.88;86.53;101143.44;10158478;28;20496;-71
2021/09/25 00:34:45;;;;;;;11.27;4.75;;;;;;;15.83;86.76;101133.44;10163723;28;20082;-70
2021/09/25 00:39:42;;;;;;;13.02;4.88;;;;;;;15.83;86.96;101143.63;10163139;28;20095;-70
2021/09/25 00:44:38;;;;;;;10.95;4.22;;;;;;;15.84;87.16;101132.28;10156559;28;20092;-71
2021/09/25 00:49:35;;;;;;;9.18;4.35;;;;;;;15.84;87.39;101128.72;10154466;28;20104;-70
2021/09/25 00:54:31;;;;;;;8.48;3.72;;;;;;;15.84;87.57;101140.56;10160415;28;20077;-71
2021/09/25 00:59:28;;;;;;;15.25;5.22;;;;;;;15.84;87.53;101139.75;10162927;28;20074;-70
2021/09/25 01:04:25;;;;;;;9.18;3.90;;;;;;;15.84;87.65;101139.75;10158872;28;20078;-71
2021/09/25 01:09:21;;;;;;;8.82;3.70;;;;;;;15.80;nan;101141.56;10153480;28;20485;-71
2021/09/25 01:14:18;;;;;;;13.80;4.63;;;;;;;15.76;88.12;101145.03;10151391;28;20042;-70
2021/09/25 01:19:14;;;;;;;12.73;5.20;;;;;;;15.71;88.72;101142.50;10148534;28;20733;-69
2021/09/25 01:24:11;;;;;;;9.45;4.60;;;;;;;15.69;88.99;101155.78;10152083;28;20070;-71
2021/09/25 01:29:07;;;;;;;13.60;4.95;;;;;;;15.68;88.99;101148.66;10156390;28;20145;-70
2021/09/25 01:34:04;;;;;;;12.52;5.10;;;;;;;15.66;89.46;101145.41;10147127;28;20053;-70
2021/09/25 01:39:00;;;;;;;11.38;4.95;;;;;;;15.68;89.42;101142.34;10152543;28;20089;-70
2021/09/25 01:43:57;;;;;;;11.57;5.07;;;;;;;15.64;89.73;101167.03;10153573;28;20050;-71
2021/09/25 01:48:53;;;;;;;12.25;5.60;;;;;;;15.63;90.29;101157.16;10142158;28;20043;-70
2021/09/25 01:53:50;;;;;;;17.10;6.78;;;;;;;15.51;92.12;101170.91;10156869;28;20054;-70
2021/09/25 01:58:46;;;;;;;11.45;6.85;;;;;;;15.41;93.91;101165.81;10142651;28;20070;-71
2021/09/25 02:03:43;;;;;;;12.63;6.93;;;;;;;15.36;94.21;101170.41;10150890;28;20564;-70
2021/09/25 02:08:41;;;;;;;13.15;6.55;;;;;;;15.36;94.99;101170.41;10150533;28;20504;-69
2021/09/25 02:13:38;;;;;;;14.07;7.15;;;;;;;15.30;95.63;101173.69;10144868;28;20532;-69
2021/09/25 02:18:34;;;;;;;15.80;7.95;;;;;;;15.24;96.61;101173.09;10144499;28;20101;-71
2021/09/25 02:23:32;;;;;;;19.48;8.52;;;;;;;15.22;96.89;101171.81;10149559;28;20062;-70
2021/09/25 02:28:30;;;;;;;14.38;8.10;;;;;;;15.23;97.77;101171.50;10140061;28;20066;-69
2021/09/25 02:33:26;;;;;;;19.40;9.25;;;;;;;15.12;98.29;101176.59;10152792;28;20129;-70
2021/09/25 02:38:23;;;;;;;19.08;10.57;;;;;;;15.07;99.70;101187.03;10152380;28;20050;-70
2021/09/25 02:43:20;;;;;;;15.68;10.15;;;;;;;15.06;100.00;101182.66;10155996;28;20051;-70
2021/09/25 02:48:17;;;;;;;20.27;9.90;;;;;;;15.10;99.87;101178.09;10151965;28;20096;-70
2021/09/25 02:53:13;;;;;;;21.15;11.48;;;;;;;15.08;100.00;101180.38;10150031;28;20508;-70
2021/09/25 02:58:10;;;;;;;19.20;12.43;;;;;;;15.08;100.00;101181.16;10144031;28;20074;-70
2021/09/25 03:03:06;;;;;;;20.70;11.38;;;;;;;15.09;100.00;101182.78;10149798;28;20042;-70
2021/09/25 03:08:05;;;;;;;24.30;12.80;;;;;;;15.07;100.00;101184.28;10148853;28;20038;-70
2021/09/25 03:13:02;;;;;;;18.02;11.55;;;;;;;15.08;100.00;101183.13;10149079;28;20133;-70
2021/09/25 03:17:59;;;;;;;19.95;12.32;;;;;;;15.07;100.00;101190.59;10149697;28;20054;-70
2021/09/25 03:22:56;;;;;;;22.90;12.25;;;;;;;15.10;100.00;101194.63;10147089;28;20492;-70
2021/09/25 03:27:54;;;;;;;18.13;12.80;;;;;;;15.09;100.00;101193.00;10143100;28;20496;-70
2021/09/25 03:32:51;;;;;;;22.33;14.07;;;;;;;15.13;100.00;101199.44;10146737;28;20563;-70
2021/09/25 03:37:47;;;;;;;24.17;13.50;;;;;;;15.13;100.00;101199.44;10146453;28;20153;-69
2021/09/25 03:42:43;;;;;;;19.55;12.57;;;;;;;15.15;100.00;101197.16;10150323;28;20601;-71
2021/09/25 03:47:40;;;;;;;20.95;13.68;;;;;;;15.16;100.00;101198.78;10148403;28;20046;-70
2021/09/25 03:52:37;;;;;;;20.98;13.60;;;;;;;15.18;100.00;101204.75;10148562;28;20082;-70
2021/09/25 03:57:34;;;;;;;23.65;14.10;;;;;;;15.16;100.00;101198.78;10152122;28;20464;-70
2021/09/25 04:02:31;;;;;;;24.48;17.08;;;;;;;15.12;100.00;101203.34;10151138;28;20086;-70
2021/09/25 04:07:27;;;;;;;24.38;16.13;;;;;;;15.11;100.00;101201.75;10139263;28;21189;-70
2021/09/25 04:12:24;;;;;;;21.20;15.85;;;;;;;15.08;100.00;101208.72;10151788;28;20467;-69
2021/09/25 04:17:20;;;;;;;25.15;17.33;;;;;;;15.05;100.00;101203.88;10141777;28;20501;-70
2021/09/25 04:22:17;;;;;;;26.70;17.05;;;;;;;15.09;100.00;101210.34;10147073;28;20073;-70
2021/09/25 04:27:13;;;;;;;24.15;17.20;;;;;;;15.08;100.00;101205.16;10143275;28;20130;-70
2021/09/25 04:32:10;;;;;;;23.25;16.50;;;;;;;15.11;100.00;101218.28;10152439;28;20043;-69
2021/09/25 04:37:06;;;;;;;26.92;17.70;;;;;;;15.13;100.00;101215.97;10150279;28;20134;-69
2021/09/25 04:42:03;;;;;;;21.63;17.10;;;;;;;15.16;100.00;101220.81;10154089;28;20073;-70
2021/09/25 04:46:59;;;;;;;25.20;18.73;;;;;;;15.15;100.00;101224.69;10143451;28;20043;-70
2021/09/25 04:51:59;;;;;;;25.55;18.60;;;;;;;15.15;100.00;101241.22;10152397;28;20130;-70
2021/09/25 04:56:55;;;;;;;29.08;19.20;;;;;;;15.14;100.00;101239.63;10154947;28;20045;-70
2021/09/25 05:01:51;;;;;;;31.33;22.70;;;;;;;15.16;100.00;101234.59;10154891;28;20097;-70
2021/09/25 05:06:48;;;;;;;32.15;24.00;;;;;;;15.16;100.00;101245.59;10154021;28;20637;-69
2021/09/25 05:11:45;;;;;;;33.75;24.42;;;;;;;15.17;100.00;101238.13;10151726;28;20050;-69
2021/09/25 05:16:43;;;;;;;33.92;24.45;;;;;;;15.19;100.00;101236.66;10158936;28;20047;-70
2021/09/25 05:21:39;;;;;;;34.15;23.20;;;;;;;15.22;100.00;101247.00;10156385;28;20046;-69
2021/09/25 05:26:36;;;;;;;35.95;24.33;;;;;;;15.24;100.00;101250.22;10149548;28;20078;-70
2021/09/25 05:31:32;;;;;;;42.00;25.70;;;;;;;15.23;100.00;101262.41;10151672;28;20461;-70
2021/09/25 05:36:29;;;;;;;43.08;27.90;;;;;;;15.26;100.00;101260.91;10153131;28;20065;-70
2021/09/25 05:41:26;;;;;;;37.67;24.85;;;;;;;15.25;100.00;101260.13;10148117;28;20142;-69
2021/09/25 05:46:22;;;;;;;40.13;25.83;;;;;;;15.29;100.00;101258.31;10148718;28;20564;-70
2021/09/25 05:51:19;;;;;;;39.88;24.45;;;;;;;15.31;100.00;101261.50;10151069;28;20485;-70
2021/09/25 05:56:16;;;;;;;46.22;26.27;;;;;;;15.35;100.00;101262.44;10152229;28;20050;-71
2021/09/25 06:01:13;;;;;;;37.50;23.48;;;;;;;15.36;100.00;101280.63;10158057;28;20527;-70
2021/09/25 06:06:09;;;;;;;41.08;25.45;;;;;;;15.35;100.00;101281.75;10155777;28;20049;-71
2021/09/25 06:11:06;;;;;;;45.50;25.52;;;;;;;15.37;100.00;101286.91;10155149;28;20104;-71
2021/09/25 06:16:03;;;;;;;40.75;24.40;;;;;;;15.36;100.00;101286.13;10148630;28;20042;-70
2021/09/25 06:20:59;;;;;;;45.90;26.30;;;;;;;15.36;100.00;101280.63;10156260;28;20491;-71
2021/09/25 06:25:56;;;;;;;38.97;21.00;;;;;;;15.41;100.00;101295.31;10152195;28;20101;-70
2021/09/25 06:30:52;;;;;;;48.60;23.38;;;;;;;15.40;100.00;101286.25;10152216;28;20047;-71
2021/09/25 06:35:49;;;;;;;53.30;22.80;;;;;;;15.44;100.00;101292.69;10154003;28;20101;-70
2021/09/25 06:40:46;;;;;;;42.20;21.60;;;;;;;15.47;100.00;101302.25;10150183;28;20093;-69
2021/09/25 06:45:43;;;;;;;44.03;21.70;;;;;;;15.47;100.00;101308.53;10149245;28;20130;-70
2021/09/25 06:50:40;;;;;;;37.92;19.52;;;;;;;15.48;100.00;101312.94;10155163;28;20044;-68
2021/09/25 06:55:36;;;;;;;40.22;20.23;;;;;;;15.53;100.00;101317.44;10151100;28;20101;-69
2021/09/25 07:00:34;;;;;;;34.08;18.42;;;;;;;15.54;100.00;101330.84;10150297;28;20109;-70
2021/09/25 07:05:30;;;;;;;34.60;17.92;;;;;;;15.58;100.00;101325.50;10161602;28;20520;-69
2021/09/25 07:10:27;;;;;;;33.40;18.40;;;;;;;15.61;100.00;101324.00;10155379;28;20452;-69
2021/09/25 07:15:24;;;;;;;29.95;17.75;;;;;;;15.66;100.00;101321.84;10149016;28;20082;-69
2021/09/25 07:20:20;;;;;;;30.83;17.58;;;;;;;15.69;100.00;101332.22;10151548;28;20112;-69
2021/09/25 07:25:21;;;;;;;32.83;17.70;;;;;;;15.74;100.00;101337.53;10154860;28;20345;-70
2021/09/25 07:30:18;;;;;;;35.95;17.63;;;;;;;15.78;100.00;101341.25;10147016;28;20136;-69
2021/09/25 07:35:15;;;;;;;32.22;17.60;;;;;;;15.74;100.00;101345.81;10151317;28;20046;-69
2021/09/25 07:40:12;;;;;;;29.95;17.70;;;;;;;15.80;100.00;101364.91;10148672;28;20046;-70
2021/09/25 07:45:10;;;;;;;25.60;15.52;;;;;;;15.86;100.00;101358.03;10147709;28;20050;-69
2021/09/25 07:50:08;;;;;;;28.35;15.68;;;;;;;15.89;100.00;101368.38;10153579;28;20046;-69
2021/09/25 07:55:06;;;;;;;27.23;15.77;;;;;;;15.95;100.00;101361.53;10145022;28;20555;-69
2021/09/25 08:00:05;;;;;;;26.40;15.70;;;;;;;15.99;100.00;101368.00;10149596;28;20101;-70
2021/09/25 08:05:02;;;;;;;29.92;15.68;;;;;;;16.06;100.00;101362.72;10146819;28;20062;-70
2021/09/25 08:09:58;;;;;;;28.63;14.80;;;;;;;16.14;100.00;101372.84;10149876;28;20047;-69
2021/09/25 08:14:55;;;;;;;31.67;15.18;;;;;;;16.24;100.00;101379.09;10154707;28;20124;-69
2021/09/25 08:19:52;;;;;;;26.30;14.38;;;;;;;16.28;99.92;101386.34;10157624;28;20704;-69
2021/09/25 08:24:48;;;;;;;24.50;14.40;;;;;;;16.32;99.57;101392.00;10154393;28;20113;-69
2021/09/25 08:29:45;;;;;;;31.23;16.23;;;;;;;16.37;99.49;101394.53;10157168;28;20080;-70
2021/09/25 08:34:41;;;;;;;26.83;14.60;;;;;;;16.41;99.05;101409.28;10155632;28;20508;-69
2021/09/25 08:39:38;;;;;;;22.77;13.70;;;;;;;16.45;99.16;101420.44;10158801;28;20058;-69
2021/09/25 08:44:35;;;;;;;22.25;13.57;;;;;;;16.52;99.34;101423.44;10154867;28;20081;-70
2021/09/25 08:49:32;;;;;;;28.90;13.77;;;;;;;16.62;98.80;101434.06;10159628;28;20574;-70
2021/09/25 08:54:28;;;;;;;26.55;15.77;;;;;;;16.60;98.04;101437.16;10143392;28;20054;-69
2021/09/25 08:59:25;;;;;;;28.13;15.95;;;;;;;16.55;97.57;101428.31;10158261;28;20073;-70
2021/09/25 09:04:21;;;;;;;24.55;13.98;;;;;;;16.58;97.65;101444.97;10155438;28;20485;-70
2021/09/25 09:09:17;;;;;;;25.00;13.60;;;;;;;16.61;97.75;101438.75;10151545;28;20357;-70
2021/09/25 09:14:16;;;;;;;23.05;14.02;;;;;;;16.65;97.74;101441.66;10159148;28;20046;-70
2021/09/25 09:19:18;;;;;;;25.08;13.68;;;;;;;16.75;97.72;101437.66;10142328;28;20046;-70
2021/09/25 09:24:16;;;;;;;22.00;12.45;;;;;;;16.85;97.12;101437.25;10153448;28;20042;-70
2021/09/25 09:29:12;;;;;;;26.42;14.23;;;;;;;16.90;96.66;101439.78;10156413;28;20138;-70
2021/09/25 09:34:09;;;;;;;24.55;14.65;;;;;;;16.91;96.33;101444.16;10158161;28;20092;-70
2021/09/25 09:39:18;;;;;;;27.98;15.20;;;;;;;16.99;96.17;101453.50;10153130;28;20047;-69
2021/09/25 09:44:16;;;;;;;25.95;14.10;;;;;;;17.05;95.23;101446.56;10148978;28;20089;-70
2021/09/25 09:49:24;;;;;;;24.40;13.38;;;;;;;17.17;94.77;101454.06;10157313;28;20089;-70
2021/09/25 09:54:29;;;;;;;21.67;14.30;;;;;;;17.28;94.35;101454.41;10149011;28;20085;-70
2021/09/25 09:59:27;;;;;;;23.40;12.95;;;;;;;17.29;94.17;101459.63;10156526;28;20074;-70
2021/09/25 10:04:24;;;;;;;24.63;12.55;;;;;;;17.37;94.23;101457.88;10146964;28;20101;-68
2021/09/25 10:09:26;;;;;;;23.50;12.82;;;;;;;17.37;93.32;101458.69;10153059;28;20050;-70
2021/09/25 10:14:31;;;;;;;20.55;11.95;;;;;;;17.49;92.89;101454.28;10151431;28;20479;-69
2021/09/25 10:19:31;;;;;;;19.40;11.75;;;;;;;17.60;92.55;101461.78;10154883;28;20073;-69
2021/09/25 10:24:43;;;;;;;19.95;11.82;;;;;;;17.60;92.20;101467.31;10154061;28;20050;-70
2021/09/25 10:29:45;;;;;;;21.50;10.35;;;;;;;17.60;92.49;101466.50;10148306;28;20412;-70
2021/09/25 10:35:03;;;;;;;16.10;9.73;;;;;;;17.62;92.59;101475.25;10144088;28;20054;-70
2021/09/25 10:40:00;;;;;;;15.18;9.23;;;;;;;17.71;93.07;101478.69;10151695;28;20462;-70
2021/09/25 10:44:56;;;;;;;19.92;8.85;;;;;;;17.77;91.64;101480.06;10148552;28;20054;-70
2021/09/25 10:49:53;;;;;;;20.70;10.55;;;;;;;17.72;90.81;101480.31;10154760;28;20133;-70
2021/09/25 10:55:18;;;;;;;17.33;9.32;;;;;;;17.91;91.88;101470.63;10138511;28;20101;-69
2021/09/25 11:00:22;;;;;;;19.80;10.65;;;;;;;17.99;89.89;101472.47;10148966;28;20089;-70
2021/09/25 11:06:00;;;;;;;14.85;7.93;;;;;;;18.17;89.44;101476.56;10152155;28;20046;-71
2021/09/25 11:11:09;;;;;;;17.13;8.82;;;;;;;18.28;89.17;101469.34;10148968;28;20070;-70
2021/09/25 11:16:06;;;;;;;14.43;8.05;;;;;;;18.29;88.22;101482.03;10136634;28;20521;-68
2021/09/25 11:21:04;;;;;;;16.20;7.65;;;;;;;18.40;88.46;101476.78;10153189;28;20038;-69
2021/09/25 11:26:00;;;;;;;12.43;7.43;;;;;;;18.45;86.81;101478.50;10152566;28;20125;-70
2021/09/25 11:31:06;;;;;;;16.42;8.20;;;;;;;18.49;85.79;101485.75;10153724;28;20050;-69
2021/09/25 11:36:11;;;;;;;13.43;7.13;;;;;;;18.66;86.31;101473.56;10145182;28;20058;-70
2021/09/25 11:41:13;;;;;;;16.88;8.00;;;;;;;18.83;84.85;101482.72;10153410;28;20137;-69
2021/09/25 11:46:09;;;;;;;14.57;6.83;;;;;;;18.89;83.82;101484.88;10145771;28;20042;-70
2021/09/25 11:51:06;;;;;;;11.30;5.68;;;;;;;19.01;84.01;101478.47;10150791;28;20101;-69
2021/09/25 11:56:02;;;;;;;11.75;7.13;;;;;;;19.04;83.01;101474.97;10153127;28;20038;-69
2021/09/25 12:00:59;;;;;;;12.40;7.75;;;;;;;18.95;82.58;101485.41;10146062;28;20054;-70
2021/09/25 12:05:59;;;;;;;10.85;5.90;;;;;;;18.92;82.20;101475.06;10148033;28;20125;-69
2021/09/25 12:11:04;;;;;;;10.63;6.30;;;;;;;18.87;81.66;101469.78;10143572;28;20038;-69
2021/09/25 12:16:14;;;;;;;12.13;6.22;;;;;;;18.93;81.54;101476.66;10144361;28;20046;-70
2021/09/25 12:21:23;;;;;;;8.27;5.38;;;;;;;19.05;80.25;101484.91;10143277;28;20057;-69
2021/09/25 12:26:25;;;;;;;9.95;5.43;;;;;;;19.13;80.00;101475.59;10152762;28;20069;-70
2021/09/25 12:31:27;;;;;;;9.97;5.30;;;;;;;19.24;79.45;101478.63;10146050;28;20050;-70
2021/09/25 12:36:35;;;;;;;12.02;6.50;;;;;;;19.24;78.54;101466.72;10145119;28;20456;-69
2021/09/25 12:41:34;;;;;;;11.43;5.25;;;;;;;19.28;78.63;101465.63;10148167;28;20084;-70
2021/09/25 12:46:37;;;;;;;9.50;4.30;;;;;;;19.41;77.77;101474.69;10145306;28;20054;-70
2021/09/25 12:51:36;;;;;;;10.67;5.80;;;;;;;19.32;76.07;101468.50;10152416;28;20053;-70
2021/09/25 12:56:43;;;;;;;13.90;5.40;;;;;;;19.26;75.69;101475.47;10141855;28;20066;-70
2021/09/25 13:01:54;;;;;;;10.40;4.35;;;;;;;19.25;75.90;101465.56;10148795;28;20042;-70
2021/09/25 13:06:54;;;;;;;9.45;4.00;;;;;;;20.31;75.73;101466.38;10155741;28;20054;-69
2021/09/25 13:12:06;;;;;;;7.38;2.88;;;;;;;22.16;69.74;101460.59;10147491;28;20500;-70
2021/09/25 13:17:03;;;;;;;8.85;3.10;;;;;;;23.29;64.74;101460.19;10153260;28;20066;-70
2021/09/25 13:22:03;;;;;;;7.30;3.20;;;;;;;23.37;60.00;101455.47;10153517;28;20050;-70
2021/09/25 13:27:00;;;;;;;9.73;4.13;;;;;;;22.52;60.78;101453.50;10145952;28;20080;-69
2021/09/25 13:31:56;;;;;;;7.78;3.20;;;;;;;21.79;63.37;101458.53;10157471;28;20062;-70
2021/09/25 13:36:53;;;;;;;6.57;2.95;;;;;;;21.34;66.07;101457.47;10152904;28;20038;-69
2021/09/25 13:41:49;;;;;;;9.13;4.10;;;;;;;21.59;65.72;101460.66;10148502;28;20077;-69
2021/09/25 13:46:46;;;;;;;8.05;3.40;;;;;;;21.25;65.58;101456.94;10152152;28;20097;-69
2021/09/25 13:51:43;;;;;;;8.15;2.50;;;;;;;20.95;66.61;101466.75;10149754;28;20043;-70
2021/09/25 13:56:39;;;;;;;8.70;4.78;;;;;;;20.56;69.05;101463.28;10155773;28;20058;-70
2021/09/25 14:01:36;;;;;;;14.05;5.10;;;;;;;20.29;70.00;101474.25;10156811;28;20162;-69
2021/09/25 14:06:33;;;;;;;10.38;5.20;;;;;;;20.07;71.61;101472.19;10154101;28;20068;-70
2021/09/25 14:11:30;;;;;;;10.55;4.88;;;;;;;20.01;72.38;101473.66;10152351;28;20082;-69
2021/09/25 14:16:26;;;;;;;10.43;3.67;;;;;;;20.07;73.38;101478.53;10148820;28;20046;-68
2021/09/25 14:21:23;;;;;;;11.85;3.97;;;;;;;19.93;72.32;101484.59;10153894;28;20567;-69
2021/09/25 14:26:19;;;;;;;6.53;3.40;;;;;;;19.89;73.20;101482.91;10155256;28;20041;-70
2021/09/25 14:31:16;;;;;;;5.55;2.30;;;;;;;19.81;72.46;101481.94;10155306;28;20085;-69
2021/09/25 14:36:12;;;;;;;7.25;2.20;;;;;;;20.07;70.55;101477.75;10153635;28;20137;-69
2021/09/25 14:41:09;;;;;;;5.15;2.70;;;;;;;20.24;71.28;101477.31;10151904;28;20058;-70
2021/09/25 14:46:05;;;;;;;7.97;2.85;;;;;;;20.09;70.97;101480.97;10144479;28;20480;-70
2021/09/25 14:51:02;;;;;;;9.45;2.70;;;;;;;20.25;72.53;101490.03;10155170;28;20046;-70
2021/09/25 14:55:58;;;;;;;11.98;3.33;;;;;;;20.42;71.29;101494.31;10151877;28;20519;-70
2021/09/25 15:00:55;;;;;;;7.70;1.90;;;;;;;20.43;71.97;101490.41;10138897;28;20105;-70
2021/09/25 15:05:51;;;;;;;9.93;2.40;;;;;;;20.27;69.19;101498.81;10145745;28;20055;-69
2021/09/25 15:10:48;;;;;;;6.15;1.60;;;;;;;19.99;68.54;101487.91;10154687;28;20137;-70
2021/09/25 15:15:45;;;;;;;8.63;2.53;;;;;;;19.92;68.64;101488.56;10152355;28;20097;-70
2021/09/25 15:20:42;;;;;;;4.45;1.35;;;;;;;19.86;67.73;101483.66;10151293;28;20077;-69
2021/09/25 15:25:38;;;;;;;6.63;2.35;;;;;;;19.65;67.57;101495.81;10146750;28;20062;-70
2021/09/25 15:30:35;;;;;;;7.05;2.17;;;;;;;19.63;68.16;101492.59;10152937;28;20549;-70
2021/09/25 15:35:32;;;;;;;5.82;1.70;;;;;;;19.61;68.47;101483.03;10150624;28;20121;-70
2021/09/25 15:40:49;;;;;;;4.03;1.05;;;;;;;19.52;66.75;101492.38;10147612;28;20046;-70
2021/09/25 15:45:45;;;;;;;5.15;0.90;;;;;;;19.60;66.91;101500.88;10153923;28;20050;-70
2021/09/25 15:50:42;;;;;;;6.00;2.90;;;;;;;19.49;66.65;101500.59;10151860;28;20045;-71
2021/09/25 15:55:38;;;;;;;4.65;1.77;;;;;;;19.52;66.36;101511.78;10152442;28;20058;-71
2021/09/25 16:00:35;;;;;;;4.78;1.48;;;;;;;19.51;66.63;101504.63;10151017;28;20069;-70
2021/09/25 16:05:32;;;;;;;4.13;1.00;;;;;;;19.57;67.38;101509.91;10143356;28;20046;-69
2021/09/25 16:10:29;;;;;;;10.75;5.25;;;;;;;19.53;66.32;101515.38;10150159;28;20046;-70
2021/09/25 16:15:25;;;;;;;9.60;4.57;;;;;;;19.42;65.39;101514.28;10150465;28;20133;-70
2021/09/25 16:20:22;;;;;;;6.30;3.13;;;;;;;19.25;64.31;101521.03;10152420;28;20101;-70
2021/09/25 16:25:18;;;;;;;5.40;1.67;;;;;;;19.10;65.29;101520.66;10151589;28;20074;-69
2021/09/25 16:30:15;;;;;;;4.43;1.75;;;;;;;19.01;66.79;101520.03;10148277;28;20081;-69
2021/09/25 16:35:12;;;;;;;4.93;2.55;;;;;;;18.86;66.46;101515.25;10132614;28;20051;-71
2021/09/25 16:40:09;;;;;;;4.70;1.73;;;;;;;18.76;68.83;101521.28;10153054;28;20046;-70
2021/09/25 16:45:06;;;;;;;5.13;1.55;;;;;;;18.64;69.25;101536.81;10159895;28;20047;-68
2021/09/25 16:50:04;;;;;;;5.20;1.58;;;;;;;18.56;69.62;101525.88;10160287;28;20097;-70
2021/09/25 16:55:00;;;;;;;3.80;1.30;;;;;;;18.53;70.41;101535.69;10156050;28;20069;-70
2021/09/25 16:59:57;;;;;;;4.47;1.35;;;;;;;18.50;71.30;101541.94;10155623;28;20567;-72
2021/09/25 17:04:53;;;;;;;4.30;1.20;;;;;;;18.44;72.16;101551.66;10157314;28;20058;-71
2021/09/25 17:09:50;;;;;;;7.10;3.13;;;;;;;18.37;70.13;101556.97;10148322;28;20038;-70
2021/09/25 17:14:46;;;;;;;6.07;2.58;;;;;;;18.30;71.59;101554.81;10152812;28;20054;-71
2021/09/25 17:19:44;;;;;;;8.27;3.20;;;;;;;18.24;72.34;101556.19;10153016;28;20065;-70
2021/09/25 17:24:41;;;;;;;9.15;3.17;;;;;;;18.17;74.02;101562.34;10153408;28;20038;-71
2021/09/25 17:29:40;;;;;;;9.10;3.67;;;;;;;18.12;72.61;101554.25;10158542;28;20500;-70
2021/09/25 17:34:37;;;;;;;5.18;2.40;;;;;;;18.11;71.87;101562.94;10148456;28;20050;-71
2021/09/25 17:39:33;;;;;;;7.35;2.92;;;;;;;18.14;70.54;101559.47;10151523;28;20560;-71
2021/09/25 17:44:30;;;;;;;7.22;2.85;;;;;;;18.17;70.52;101562.34;10149079;28;20686;-70
2021/09/25 17:49:26;;;;;;;6.30;2.20;;;;;;;18.16;70.49;101565.47;10152035;28;20070;-70
2021/09/25 17:54:23;;;;;;;8.18;3.95;;;;;;;18.16;70.41;101571.78;10145131;28;20054;-71
2021/09/25 17:59:19;;;;;;;15.35;8.43;;;;;;;18.13;70.83;101571.69;10151697;28;20552;-71
2021/09/25 18:04:17;;;;;;;7.07;3.85;;;;;;;18.09;71.82;101568.81;10149338;28;20563;-71
2021/09/25 18:09:13;;;;;;;5.68;2.65;;;;;;;18.03;71.43;101579.31;10155707;28;20042;-71
2021/09/25 18:14:10;;;;;;;5.72;2.40;;;;;;;17.98;71.42;101576.75;10150914;28;20570;-70
2021/09/25 18:19:06;;;;;;;6.93;3.15;;;;;;;18.01;72.48;101580.78;10152768;28;20133;-71
2021/09/25 18:24:04;;;;;;;13.18;3.30;;;;;;;18.04;73.19;101591.19;10143472;28;20617;-70
2021/09/25 18:29:00;;;;;;;5.93;2.65;;;;;;;18.04;74.16;101591.19;10155823;28;20088;-70
2021/09/25 18:33:57;;;;;;;6.53;2.83;;;;;;;18.00;75.05;101595.81;10147659;28;20042;-71
2021/09/25 18:38:53;;;;;;;8.60;4.15;;;;;;;17.96;75.41;101594.88;10152707;28;20493;-71
2021/09/25 18:43:49;;;;;;;5.63;3.03;;;;;;;17.93;75.72;101590.03;10149622;28;20074;-71
2021/09/25 18:48:46;;;;;;;7.82;3.55;;;;;;;17.88;76.25;101593.84;10150177;28;20390;-69
2021/09/25 18:53:42;;;;;;;9.40;3.95;;;;;;;17.84;76.57;101592.91;10153412;28;20177;-71
2021/09/25 18:58:39;;;;;;;10.50;4.35;;;;;;;17.80;76.87;101603.84;10150846;28;20069;-70
2021/09/25 19:03:35;;;;;;;10.82;3.75;;;;;;;17.79;76.86;101607.75;10150134;28;20448;-71
2021/09/25 19:08:32;;;;;;;6.75;3.45;;;;;;;17.79;77.33;101607.75;10147799;28;20468;-72
2021/09/25 19:13:30;;;;;;;8.15;4.72;;;;;;;17.81;77.37;101622.09;10143657;28;20098;-71
2021/09/25 19:18:28;;;;;;;8.15;4.10;;;;;;;17.77;78.42;101625.84;10147794;28;20066;-71
2021/09/25 19:23:24;;;;;;;8.45;3.83;;;;;;;17.71;78.46;101622.53;10146693;28;20122;-71
2021/09/25 19:28:21;;;;;;;7.10;3.88;;;;;;;17.67;78.57;101632.66;10153590;28;20049;-71
2021/09/25 19:33:17;;;;;;;7.28;4.07;;;;;;;17.63;78.36;101626.97;10150903;28;20065;-70
2021/09/25 19:38:14;;;;;;;6.35;3.55;;;;;;;17.59;78.83;101631.59;10151042;28;20062;-71
2021/09/25 19:43:12;;;;;;;6.25;3.38;;;;;;;17.59;79.56;101636.31;10147714;28;20142;-71
2021/09/25 19:48:09;;;;;;;10.98;3.25;;;;;;;17.55;80.65;101636.22;10150334;28;20065;-70
2021/09/25 19:53:05;;;;;;;9.30;4.50;;;;;;;17.52;80.42;101647.13;10151071;28;20038;-71
2021/09/25 19:58:16;;;;;;;7.70;3.38;;;;;;;17.54;80.31;101636.53;10145261;28;20049;-71
2021/09/25 20:03:12;;;;;;;10.05;5.15;;;;;;;17.54;80.56;101633.78;10151854;28;20101;-71
2021/09/25 20:08:10;;;;;;;6.93;3.85;;;;;;;17.52;80.89;101641.59;10147481;28;20130;-71
2021/09/25 20:13:07;;;;;;;7.97;4.53;;;;;;;17.51;81.71;101634.47;10155590;28;20057;-71
2021/09/25 20:18:03;;;;;;;8.10;4.57;;;;;;;17.49;81.38;101636.75;10151389;28;20757;-70
2021/09/25 20:23:02;;;;;;;10.00;4.65;;;;;;;17.47;81.50;101639.88;10153650;28;20046;-71
2021/09/25 20:27:59;;;;;;;11.20;5.03;;;;;;;17.43;81.15;101639.75;10158498;28;20137;-71
2021/09/25 20:32:55;;;;;;;9.23;4.88;;;;;;;17.41;81.65;101636.53;10158917;28;20574;-70
2021/09/25 20:37:52;;;;;;;9.50;4.82;;;;;;;17.40;82.19;101645.94;10155182;28;20046;-71
2021/09/25 20:42:49;;;;;;;8.55;5.05;;;;;;;17.39;82.04;101644.34;10152005;28;20112;-72
2021/09/25 20:47:49;;;;;;;10.10;4.70;;;;;;;17.36;82.56;101645.03;10153777;28;20109;-69
2021/09/25 20:52:45;;;;;;;10.80;5.53;;;;;;;17.34;82.19;101647.34;10156484;28;20069;-72
2021/09/25 20:57:42;;;;;;;8.43;4.65;;;;;;;17.30;82.48;101640.88;10153373;28;20130;-72
2021/09/25 21:02:39;;;;;;;8.98;5.10;;;;;;;17.22;82.51;101639.81;10157981;28;20128;-72
2021/09/25 21:07:36;;;;;;;10.52;5.88;;;;;;;17.14;82.85;101631.59;10153148;28;20505;-72
2021/09/25 21:12:33;;;;;;;10.23;5.97;;;;;;;17.08;82.63;101638.47;10158554;28;20452;-71
2021/09/25 21:17:29;;;;;;;9.77;5.85;;;;;;;17.03;82.93;101650.56;10137345;28;20435;-71
2021/09/25 21:22:27;;;;;;;14.15;7.28;;;;;;;17.02;82.79;101647.00;10150054;28;20093;-70
2021/09/25 21:27:24;;;;;;;11.75;7.40;;;;;;;17.02;83.59;101646.19;10148047;28;20046;-71
2021/09/25 21:32:20;;;;;;;14.38;6.32;;;;;;;16.98;83.71;101646.03;10149311;28;20543;-72
2021/09/25 21:37:18;;;;;;;10.70;6.78;;;;;;;16.93;83.88;101634.41;10142885;28;20043;-71
2021/09/25 21:42:14;;;;;;;10.38;6.72;;;;;;;16.86;83.88;101642.44;10146135;28;20162;-75
2021/09/25 21:47:11;;;;;;;11.20;7.22;;;;;;;16.81;84.05;101651.72;10144139;28;20046;-73
2021/09/25 21:52:07;;;;;;;12.45;7.53;;;;;;;16.76;84.31;101654.66;10139019;28;20046;-72
2021/09/25 21:57:04;;;;;;;10.73;6.75;;;;;;;16.73;84.36;101660.84;10139715;28;20105;-74
2021/09/25 22:02:00;;;;;;;9.80;6.90;;;;;;;16.68;84.67;101652.78;10128973;28;20501;-70
2021/09/25 22:06:58;;;;;;;11.23;7.22;;;;;;;16.67;85.03;101651.16;10141943;28;20054;-69
2021/09/25 22:12:11;;;;;;;11.10;7.68;;;;;;;16.65;85.22;101650.69;10134653;28;20057;-67
2021/09/25 22:17:08;;;;;;;14.88;8.52;;;;;;;16.62;85.46;101660.47;10138343;28;20475;-67
2021/09/25 22:22:04;;;;;;;14.35;7.70;;;;;;;16.62;85.57;101660.47;10142539;28;20167;-71
2021/09/25 22:27:01;;;;;;;13.43;8.32;;;;;;;16.62;85.99;101661.25;10145541;28;20069;-72